Time;durP1;ratioP1;P1;durP2;ratioP2;P2;SDS_P1;SDS_P2;PMS_P1;PMS_P2;Temp;Humidity;BMP_temperature;BMP_pressure;BME280_temperature;BME280_humidity;BME280_pressure;Samples;Min_cycle;Max_cycle;Signal;HPM_P1;HPM_P2
2023/09/21 00:01:14;;;;;;;11.00;9.00;;;;;;;18.70;78.26;100774.14;108052;1260;71588;-68
2023/09/21 00:03:41;;;;;;;10.40;9.10;;;;;;;18.71;78.34;100773.37;108019;1254;72745;-68
2023/09/21 00:06:09;;;;;;;11.90;10.60;;;;;;;18.74;78.38;100771.48;107951;1254;60573;-69
2023/09/21 00:08:37;;;;;;;11.40;10.20;;;;;;;18.78;78.64;100774.86;108046;1259;60339;-69
2023/09/21 00:11:05;;;;;;;11.50;10.20;;;;;;;18.99;78.33;100775.85;107915;1256;72674;-69
2023/09/21 00:13:33;;;;;;;11.10;9.90;;;;;;;19.31;77.32;100775.39;107903;1260;70617;-68
2023/09/21 00:16:01;;;;;;;10.40;9.20;;;;;;;19.39;77.06;100774.64;107932;1254;73042;-69
2023/09/21 00:18:31;;;;;;;12.20;9.80;;;;;;;19.44;76.81;100772.83;108121;1254;61674;-68
2023/09/21 00:21:01;;;;;;;12.20;10.10;;;;;;;19.17;77.30;100774.55;107908;1254;60463;-68
2023/09/21 00:23:30;;;;;;;12.90;9.80;;;;;;;19.06;77.82;100784.20;107979;1254;73808;-68
2023/09/21 00:25:58;;;;;;;13.30;9.80;;;;;;;19.05;77.97;100783.46;108006;1254;70622;-68
2023/09/21 00:28:28;;;;;;;11.00;9.80;;;;;;;19.06;78.07;100778.52;107994;1256;72674;-68
2023/09/21 00:30:57;;;;;;;11.30;10.10;;;;;;;19.06;78.04;100777.23;107949;1256;60441;-68
2023/09/21 00:33:26;;;;;;;11.00;9.90;;;;;;;19.06;78.00;100773.05;107947;1256;60278;-68
2023/09/21 00:35:58;;;;;;;14.10;10.50;;;;;;;19.09;78.04;100771.18;107878;1257;72941;-68
2023/09/21 00:38:26;;;;;;;11.30;10.20;;;;;;;19.12;78.01;100768.63;108072;1254;72501;-69
2023/09/21 00:41:00;;;;;;;11.50;9.90;;;;;;;19.15;78.13;100769.02;108067;1254;72703;-68
2023/09/21 00:43:28;;;;;;;11.70;10.50;;;;;;;19.14;77.94;100772.20;107811;1256;61698;-69
2023/09/21 00:45:57;;;;;;;11.00;9.80;;;;;;;19.10;77.96;100773.42;107861;1256;60332;-68
2023/09/21 00:48:31;;;;;;;11.70;9.90;;;;;;;19.10;78.03;100775.71;107773;1254;72623;-69
2023/09/21 00:51:00;;;;;;;12.20;10.20;;;;;;;19.09;78.09;100776.06;107959;1254;72211;-69
2023/09/21 09:04:06;;;;;;;8.00;5.80;;;;;;;25.32;52.43;100789.50;105604;1283;613207;-74
2023/09/21 09:06:34;;;;;;;6.20;5.20;;;;;;;25.85;50.74;100796.05;107099;1267;156408;-73
2023/09/21 09:09:02;;;;;;;6.90;5.60;;;;;;;25.87;51.00;100798.70;107384;1267;60171;-72
2023/09/21 09:11:34;;;;;;;8.40;5.60;;;;;;;26.10;51.05;100796.10;107759;1260;72318;-73
2023/09/21 09:14:03;;;;;;;6.80;5.80;;;;;;;26.33;49.64;100793.55;107637;1261;72849;-72
2023/09/21 09:16:31;;;;;;;9.70;5.80;;;;;;;26.46;48.79;100789.05;107745;1260;71899;-73
2023/09/21 09:19:00;;;;;;;7.80;5.90;;;;;;;26.58;48.17;100783.61;107822;1259;62241;-74
2023/09/21 09:21:28;;;;;;;8.90;5.40;;;;;;;26.69;48.14;100786.33;107621;1260;59540;-75
2023/09/21 09:23:56;;;;;;;6.80;5.40;;;;;;;26.76;47.34;100781.48;107643;1260;72293;-71
2023/09/21 09:26:24;;;;;;;7.20;5.20;;;;;;;26.71;47.49;100784.19;107631;1260;72976;-72
2023/09/21 09:29:03;;;;;;;5.70;4.90;;;;;;;26.57;47.49;100783.53;107566;1260;72772;-73
2023/09/21 09:31:31;;;;;;;7.50;5.80;;;;;;;26.42;47.32;100785.98;107615;1259;59490;-74
2023/09/21 09:34:00;;;;;;;9.10;5.90;;;;;;;26.30;47.14;100788.79;107687;1259;59416;-73
2023/09/21 09:36:28;;;;;;;10.10;6.10;;;;;;;26.35;47.23;100788.20;107823;1260;71910;-72
2023/09/21 09:38:56;;;;;;;8.40;5.90;;;;;;;26.32;47.49;100787.83;107749;1260;72984;-73
2023/09/21 09:41:24;;;;;;;7.90;6.00;;;;;;;26.30;47.62;100791.13;107661;1260;63921;-73
2023/09/21 09:43:51;;;;;;;7.60;6.20;;;;;;;26.08;48.04;100790.64;107586;1260;60146;-73
2023/09/21 09:46:19;;;;;;;7.40;5.80;;;;;;;25.96;48.19;100785.29;107647;1264;59309;-71
2023/09/21 09:48:50;;;;;;;6.40;5.70;;;;;;;26.25;47.78;100787.34;108196;1259;73693;-73
2023/09/21 09:51:23;;;;;;;8.50;5.90;;;;;;;26.36;48.17;100786.34;107799;1259;72903;-72
2023/09/21 09:53:51;;;;;;;9.10;6.10;;;;;;;25.99;49.36;100792.80;107725;1260;71396;-71
2023/09/21 09:56:19;;;;;;;10.50;6.50;;;;;;;25.88;49.81;100788.62;107599;1260;60882;-72
2023/09/21 09:58:48;;;;;;;8.70;6.30;;;;;;;25.80;50.12;100796.67;107765;1259;59634;-71
2023/09/21 10:01:16;;;;;;;10.10;6.60;;;;;;;25.71;50.19;100797.41;107619;1260;71940;-73
2023/09/21 10:03:44;;;;;;;9.00;6.50;;;;;;;25.73;49.89;100798.00;107575;1260;72892;-73
2023/09/21 10:06:14;;;;;;;7.40;6.20;;;;;;;25.70;49.70;100795.75;107568;1260;71415;-72
2023/09/21 10:08:43;;;;;;;10.70;6.80;;;;;;;25.63;49.57;100798.39;107687;1259;61748;-72
2023/09/21 10:11:11;;;;;;;9.40;6.10;;;;;;;25.57;49.65;100796.67;107670;1265;60048;-74
2023/09/21 10:13:51;;;;;;;9.10;6.30;;;;;;;25.51;49.66;100790.98;107612;1259;75107;-72
2023/09/21 10:16:20;;;;;;;8.50;6.30;;;;;;;25.45;49.96;100790.36;107637;1264;71445;-72
2023/09/21 10:18:53;;;;;;;9.20;6.70;;;;;;;25.44;50.06;100787.20;107635;1259;72960;-72
2023/09/21 10:21:24;;;;;;;8.70;6.70;;;;;;;25.44;50.11;100791.11;107615;1261;59547;-71
2023/09/21 10:24:03;;;;;;;;;;;;;;;25.42;50.21;100787.62;107509;1262;59562;-72
2023/09/21 10:26:33;;;;;;;8.60;6.80;;;;;;;25.35;50.79;100788.08;107599;1263;73118;-73
2023/09/21 10:29:03;;;;;;;9.60;7.20;;;;;;;25.51;50.42;100786.91;107617;1260;73105;-74
2023/09/21 10:31:33;;;;;;;10.20;7.10;;;;;;;25.58;50.48;100789.82;107577;1260;72754;-73
2023/09/21 10:34:01;;;;;;;9.70;7.40;;;;;;;25.62;50.60;100790.84;107691;1260;59634;-72
2023/09/21 10:36:30;;;;;;;8.70;7.30;;;;;;;25.65;50.28;100786.86;107838;1257;59490;-73
2023/09/21 10:39:10;;;;;;;8.70;6.90;;;;;;;25.65;50.18;100788.51;107882;1257;73028;-74
2023/09/21 10:41:41;;;;;;;8.40;7.10;;;;;;;25.64;50.26;100787.64;107872;1257;71953;-72
2023/09/21 10:44:09;;;;;;;9.50;7.50;;;;;;;25.54;50.55;100793.63;107778;1260;72751;-71
2023/09/21 10:46:37;;;;;;;11.30;7.40;;;;;;;25.45;50.70;100787.63;107945;1256;59556;-74
2023/09/21 10:49:06;;;;;;;11.20;7.60;;;;;;;25.23;51.40;100785.95;107889;1261;60257;-73
2023/09/21 10:51:35;;;;;;;9.30;6.90;;;;;;;25.17;51.82;100784.02;107860;1257;72207;-73
2023/09/21 10:54:04;;;;;;;10.80;8.20;;;;;;;25.12;52.24;100786.04;107871;1257;75050;-73
2023/09/21 10:56:38;;;;;;;11.80;8.10;;;;;;;25.04;52.83;100788.25;107837;1259;71871;-73
2023/09/21 10:59:09;;;;;;;12.00;8.20;;;;;;;24.99;53.33;100789.98;107871;1257;59545;-72
2023/09/21 11:01:37;;;;;;;9.10;7.40;;;;;;;24.91;53.83;100789.85;107843;1257;59580;-72
2023/09/21 11:04:05;;;;;;;10.50;7.80;;;;;;;24.78;54.04;100790.02;107730;1257;72190;-73
2023/09/21 11:06:33;;;;;;;9.90;7.60;;;;;;;24.53;54.59;100786.83;107663;1258;72915;-73
2023/09/21 11:09:02;;;;;;;11.00;7.90;;;;;;;24.30;55.14;100779.56;107803;1257;71433;-73
2023/09/21 11:11:30;;;;;;;11.70;8.10;;;;;;;24.11;55.67;100777.27;108026;1256;62272;-73
2023/09/21 15:29:02;;;;;;;9.20;7.10;;;;;;;28.57;41.08;100647.46;105607;1287;604067;-68
2023/09/21 15:31:30;;;;;;;8.40;6.60;;;;;;;29.01;39.86;100646.05;107116;1264;420799;-70
2023/09/21 15:33:58;;;;;;;9.00;6.30;;;;;;;28.68;40.26;100649.59;107562;1260;59502;-69
2023/09/21 15:36:26;;;;;;;10.50;6.70;;;;;;;28.40;40.77;100649.85;107637;1261;63489;-70
2023/09/21 15:38:56;;;;;;;9.00;6.50;;;;;;;28.12;40.95;100649.05;107540;1263;65004;-69
2023/09/21 15:41:24;;;;;;;11.90;6.80;;;;;;;27.82;41.24;100646.93;107580;1260;65244;-69
2023/09/21 15:43:51;;;;;;;7.40;6.10;;;;;;;27.40;41.91;100647.02;107519;1260;59516;-70
2023/09/21 15:46:19;;;;;;;9.10;6.60;;;;;;;26.95;43.11;100646.83;107594;1260;59394;-69
2023/09/21 15:48:47;;;;;;;8.70;7.10;;;;;;;26.54;44.08;100646.48;107546;1260;74497;-69
2023/09/21 15:51:16;;;;;;;8.40;7.10;;;;;;;26.22;45.49;100646.71;107580;1260;74062;-70
2023/09/21 15:53:44;;;;;;;8.30;6.90;;;;;;;25.92;46.48;100643.13;107587;1260;72811;-70
2023/09/21 15:56:12;;;;;;;9.70;7.40;;;;;;;25.63;47.01;100644.52;107631;1260;59608;-70
2023/09/21 15:58:40;;;;;;;10.00;7.30;;;;;;;25.35;47.54;100647.39;107570;1260;60093;-69
2023/09/21 16:01:08;;;;;;;13.60;7.40;;;;;;;25.09;48.15;100646.81;107540;1260;72449;-70
2023/09/21 16:03:35;;;;;;;10.30;7.30;;;;;;;24.86;48.45;100650.05;108164;1253;72782;-70
2023/09/21 16:06:04;;;;;;;11.40;6.90;;;;;;;24.64;48.85;100649.80;108155;1253;71440;-69
2023/09/21 16:08:32;;;;;;;10.00;7.50;;;;;;;24.43;49.08;100648.27;108168;1253;59569;-70
2023/09/21 16:10:59;;;;;;;10.20;7.60;;;;;;;24.22;49.68;100650.42;108147;1253;60040;-70
2023/09/21 16:13:27;;;;;;;11.30;7.80;;;;;;;24.03;50.21;100651.05;107941;1253;72406;-68
2023/09/21 16:15:55;;;;;;;10.30;7.40;;;;;;;23.82;50.84;100652.70;108373;1253;72562;-70
2023/09/21 16:18:23;;;;;;;9.50;7.80;;;;;;;23.66;51.46;100654.60;108220;1254;71451;-70
2023/09/21 16:20:51;;;;;;;11.00;8.20;;;;;;;23.49;51.51;100657.11;108217;1254;59768;-70
2023/09/21 16:23:19;;;;;;;13.10;8.00;;;;;;;23.32;51.65;100661.22;108233;1252;59616;-69
2023/09/21 16:25:47;;;;;;;13.30;8.50;;;;;;;23.06;52.74;100661.25;108034;1254;72864;-70
2023/09/21 16:28:14;;;;;;;11.30;9.00;;;;;;;22.87;53.44;100664.23;108137;1254;72459;-68
2023/09/21 16:30:42;;;;;;;11.20;7.90;;;;;;;22.68;54.14;100662.17;108236;1254;73564;-70
2023/09/21 16:33:09;;;;;;;13.00;8.90;;;;;;;22.62;54.35;100665.30;108129;1254;60393;-67
2023/09/21 16:35:38;;;;;;;12.20;8.30;;;;;;;22.49;54.84;100668.23;108224;1254;60207;-68
2023/09/21 16:38:09;;;;;;;12.00;8.40;;;;;;;22.35;55.60;100667.94;108186;1254;73034;-70
2023/09/21 16:40:37;;;;;;;13.00;9.30;;;;;;;22.27;56.14;100669.28;108232;1254;71891;-70
2023/09/21 16:43:04;;;;;;;13.30;9.50;;;;;;;22.20;56.37;100670.36;108178;1254;72790;-69
2023/09/21 16:45:40;;;;;;;10.80;9.00;;;;;;;22.14;56.89;100670.27;108206;1255;59634;-69
2023/09/21 16:48:08;;;;;;;11.40;9.10;;;;;;;22.06;57.49;100671.21;108182;1253;59358;-70
2023/09/21 16:50:37;;;;;;;12.40;9.60;;;;;;;21.99;57.91;100674.04;108269;1253;74066;-71
2023/09/21 16:53:04;;;;;;;15.80;10.30;;;;;;;21.91;58.08;100678.58;108224;1254;72692;-69
2023/09/21 16:55:32;;;;;;;13.80;9.90;;;;;;;21.90;58.35;100677.50;108137;1253;71927;-70
2023/09/21 16:58:00;;;;;;;15.40;10.40;;;;;;;21.91;58.34;100681.59;108190;1257;60253;-70
2023/09/21 17:00:28;;;;;;;13.90;9.10;;;;;;;21.92;58.55;100683.88;108177;1253;59557;-70
2023/09/21 17:02:56;;;;;;;13.30;9.50;;;;;;;21.88;58.79;100684.67;108189;1253;73151;-68
2023/09/21 17:05:25;;;;;;;14.80;9.40;;;;;;;21.84;58.99;100689.16;108179;1254;72994;-69
2023/09/21 17:07:53;;;;;;;13.00;9.00;;;;;;;21.74;59.56;100691.35;108106;1254;71850;-69
2023/09/21 17:10:24;;;;;;;15.60;9.20;;;;;;;21.67;59.83;100695.71;108198;1254;61876;-69
2023/09/21 17:12:54;;;;;;;13.60;8.60;;;;;;;21.67;59.80;100696.44;108167;1253;59612;-69
2023/09/21 17:15:21;;;;;;;11.40;8.30;;;;;;;21.64;59.64;100697.27;107960;1254;75364;-70
2023/09/21 17:17:49;;;;;;;11.20;8.00;;;;;;;21.59;59.65;100695.17;108209;1254;73082;-70
2023/09/21 17:20:17;;;;;;;14.00;7.70;;;;;;;21.55;59.57;100694.33;108201;1254;72673;-71
2023/09/21 17:22:44;;;;;;;10.20;7.50;;;;;;;21.49;59.12;100692.48;108131;1253;62370;-70
2023/09/21 17:25:12;;;;;;;15.70;8.40;;;;;;;21.45;59.26;100699.11;108178;1253;60792;-70
2023/09/21 17:27:42;;;;;;;12.40;6.90;;;;;;;21.40;59.34;100698.77;108118;1253;73170;-70
2023/09/21 17:30:11;;;;;;;11.80;7.20;;;;;;;21.38;59.24;100701.34;108120;1254;72725;-70
2023/09/21 17:32:39;;;;;;;9.60;7.10;;;;;;;21.35;58.96;100700.98;108134;1253;74712;-70
2023/09/21 17:35:07;;;;;;;11.00;7.40;;;;;;;21.23;59.07;100703.02;108204;1253;60817;-71
2023/09/21 17:37:35;;;;;;;12.30;7.10;;;;;;;21.25;58.81;100703.34;108236;1253;60470;-70
2023/09/21 17:40:04;;;;;;;12.60;7.90;;;;;;;21.23;58.76;100709.39;108280;1253;72204;-69
2023/09/21 17:42:32;;;;;;;12.00;7.60;;;;;;;21.23;58.61;100708.28;108180;1254;70741;-69
2023/09/21 17:45:03;;;;;;;14.00;7.80;;;;;;;21.19;58.32;100706.22;108195;1254;71726;-69
2023/09/21 17:47:31;;;;;;;12.60;7.60;;;;;;;21.14;58.21;100705.52;108108;1254;60514;-69
2023/09/21 17:49:58;;;;;;;13.30;7.90;;;;;;;21.08;58.29;100706.81;108147;1254;60093;-70
2023/09/21 17:52:26;;;;;;;14.60;8.50;;;;;;;21.00;58.23;100706.33;107983;1254;73398;-70
2023/09/21 17:54:54;;;;;;;12.80;8.10;;;;;;;20.93;58.13;100708.59;108013;1259;71632;-68
2023/09/21 17:57:24;;;;;;;10.60;7.60;;;;;;;20.87;58.21;100712.42;108019;1256;72912;-70
2023/09/21 17:59:52;;;;;;;12.80;7.90;;;;;;;20.79;58.10;100710.23;100441;1254;10001584;-68
2023/09/21 18:02:20;;;;;;;10.70;8.00;;;;;;;20.70;58.35;100709.13;85439;1254;20002585;-68
2023/09/21 18:04:48;;;;;;;12.10;8.80;;;;;;;20.63;58.58;100707.67;107924;1254;74741;-68
2023/09/21 18:07:16;;;;;;;17.30;9.40;;;;;;;20.56;58.65;100706.75;107856;1254;60200;-69
2023/09/21 18:09:43;;;;;;;13.70;9.50;;;;;;;20.46;58.72;100708.35;107919;1253;59554;-68
2023/09/21 18:12:12;;;;;;;14.20;10.10;;;;;;;20.38;59.04;100709.02;107864;1254;73835;-68
2023/09/21 18:14:40;;;;;;;13.30;9.70;;;;;;;20.31;59.16;100707.23;107815;1253;75046;-69
2023/09/21 18:17:09;;;;;;;13.80;9.80;;;;;;;20.22;59.55;100710.33;107794;1254;72737;-68
2023/09/21 18:19:37;;;;;;;14.10;9.50;;;;;;;20.10;59.62;100709.93;107837;1254;60805;-69
2023/09/21 18:22:04;;;;;;;14.70;9.70;;;;;;;20.02;59.81;100708.70;107861;1254;61778;-69
2023/09/21 18:24:32;;;;;;;13.60;9.30;;;;;;;19.97;59.94;100712.35;107824;1254;72191;-68
2023/09/21 18:26:59;;;;;;;12.30;9.40;;;;;;;19.95;60.05;100712.45;107930;1254;71633;-68
2023/09/21 18:29:27;;;;;;;12.50;9.70;;;;;;;19.92;60.23;100708.84;107938;1254;71438;-68
2023/09/21 18:31:55;;;;;;;18.10;9.80;;;;;;;19.84;60.28;100707.48;107869;1256;59854;-69
2023/09/21 18:34:23;;;;;;;15.00;10.40;;;;;;;19.77;60.51;100706.83;107971;1252;59621;-69
2023/09/21 18:36:53;;;;;;;13.30;10.60;;;;;;;19.71;60.78;100706.18;107941;1258;71869;-69
2023/09/21 18:39:21;;;;;;;16.40;9.40;;;;;;;19.68;60.95;100708.29;107859;1254;73003;-70
2023/09/21 18:41:48;;;;;;;12.00;10.10;;;;;;;19.64;60.84;100703.98;107906;1255;73172;-70
2023/09/21 18:44:18;;;;;;;12.20;9.60;;;;;;;19.60;61.04;100707.65;107803;1256;62266;-69
2023/09/21 18:46:46;;;;;;;12.80;9.90;;;;;;;19.56;60.99;100707.50;107920;1254;60349;-70
2023/09/21 18:49:16;;;;;;;13.30;10.40;;;;;;;19.52;61.12;100707.77;107968;1253;71902;-69
2023/09/21 18:51:43;;;;;;;17.00;10.20;;;;;;;19.51;61.23;100706.39;108012;1254;72891;-69
2023/09/21 18:54:11;;;;;;;13.90;9.60;;;;;;;19.50;61.32;100705.19;107748;1254;74890;-69
2023/09/21 18:56:39;;;;;;;15.80;10.00;;;;;;;19.49;61.36;100705.70;107873;1254;60129;-69
2023/09/21 18:59:27;;;;;;;16.60;10.60;;;;;;;19.47;61.22;100704.34;107815;1253;59660;-68
2023/09/21 19:01:55;;;;;;;14.20;10.30;;;;;;;19.44;60.83;100701.90;107914;1255;71814;-68
2023/09/21 19:04:24;;;;;;;12.70;10.00;;;;;;;19.41;60.93;100702.70;107860;1254;71539;-70
2023/09/21 19:06:52;;;;;;;13.10;9.90;;;;;;;19.38;60.69;100702.45;107934;1254;71582;-68
2023/09/21 19:09:20;;;;;;;12.00;9.20;;;;;;;19.34;60.72;100701.81;107937;1254;61789;-69
2023/09/21 19:11:48;;;;;;;13.00;9.80;;;;;;;19.31;60.75;100705.84;107803;1254;60164;-69
2023/09/21 19:14:17;;;;;;;13.70;10.40;;;;;;;19.27;60.78;100709.73;107906;1254;71836;-69
2023/09/21 19:16:48;;;;;;;13.60;10.20;;;;;;;19.23;60.95;100706.13;107854;1254;72909;-69
2023/09/21 19:19:18;;;;;;;13.80;10.60;;;;;;;19.17;61.19;100706.38;107875;1257;70961;-70
2023/09/21 19:21:48;;;;;;;21.30;17.40;;;;;;;19.10;61.43;100707.73;108020;1254;61938;-69
2023/09/21 19:24:16;;;;;;;14.70;11.70;;;;;;;19.05;61.57;100709.45;107872;1254;59717;-69
2023/09/21 19:26:43;;;;;;;21.40;17.40;;;;;;;18.98;61.93;100708.00;107908;1254;74052;-69
2023/09/21 19:29:12;;;;;;;19.10;14.90;;;;;;;18.91;62.12;100710.72;107926;1254;71624;-69
2023/09/21 19:31:40;;;;;;;21.60;15.30;;;;;;;18.83;62.36;100712.33;107963;1253;72781;-69
2023/09/21 19:34:08;;;;;;;16.80;12.40;;;;;;;18.76;62.67;100715.46;107805;1254;61807;-69
2023/09/21 19:36:36;;;;;;;20.30;12.60;;;;;;;18.72;62.67;100714.31;107889;1254;60280;-69
2023/09/21 19:39:06;;;;;;;19.60;12.00;;;;;;;18.70;62.70;100715.00;107918;1259;74376;-68
2023/09/21 19:41:34;;;;;;;20.10;11.40;;;;;;;18.67;62.84;100711.77;107924;1253;72646;-68
2023/09/21 19:44:02;;;;;;;17.20;10.90;;;;;;;18.64;62.85;100714.92;107852;1255;72049;-69
2023/09/21 19:46:31;;;;;;;15.20;10.60;;;;;;;18.61;62.93;100716.44;107858;1254;60440;-69
2023/09/21 19:48:59;;;;;;;15.20;10.20;;;;;;;18.60;63.01;100716.59;107881;1254;60405;-69
2023/09/21 19:51:28;;;;;;;15.40;10.10;;;;;;;18.59;63.13;100718.16;107882;1254;76058;-69
2023/09/21 19:53:56;;;;;;;12.40;9.60;;;;;;;18.57;63.12;100719.46;107888;1258;71579;-67
2023/09/21 19:56:24;;;;;;;12.60;9.90;;;;;;;18.55;63.05;100720.88;107968;1256;75042;-68
2023/09/21 19:58:51;;;;;;;15.00;10.50;;;;;;;18.49;63.03;100719.42;107864;1254;60226;-69
2023/09/21 20:01:20;;;;;;;14.00;10.20;;;;;;;18.43;63.07;100721.80;107935;1254;59694;-69
2023/09/21 20:03:48;;;;;;;12.10;9.90;;;;;;;18.36;63.08;100720.66;107760;1253;74056;-69
2023/09/21 20:06:17;;;;;;;12.40;10.00;;;;;;;18.30;63.33;100721.59;107926;1254;72835;-69
2023/09/21 20:08:44;;;;;;;17.20;9.80;;;;;;;18.25;63.33;100719.17;107901;1256;72675;-69
2023/09/21 20:11:12;;;;;;;15.00;10.30;;;;;;;18.21;63.35;100719.69;107870;1257;60492;-69
2023/09/21 20:13:40;;;;;;;13.80;10.10;;;;;;;18.16;63.31;100722.98;107897;1254;60287;-69
2023/09/21 20:16:10;;;;;;;11.90;10.00;;;;;;;18.12;63.24;100721.35;107903;1252;73024;-69
2023/09/21 20:18:39;;;;;;;13.60;10.10;;;;;;;18.08;63.48;100722.95;107957;1253;72294;-70
2023/09/21 20:21:06;;;;;;;15.10;9.80;;;;;;;18.04;63.41;100719.40;107938;1253;72158;-69
2023/09/21 20:23:34;;;;;;;12.30;9.70;;;;;;;17.99;63.47;100718.69;107732;1254;63985;-69
2023/09/21 20:26:03;;;;;;;14.20;9.40;;;;;;;17.95;63.65;100722.08;107960;1253;62571;-69
2023/09/21 20:28:31;;;;;;;14.20;10.50;;;;;;;17.88;63.51;100719.41;107806;1254;74197;-68
2023/09/21 20:31:00;;;;;;;11.00;9.80;;;;;;;17.82;63.68;100715.33;107996;1254;71568;-69
2023/09/21 20:33:28;;;;;;;11.70;9.60;;;;;;;17.77;63.63;100719.41;108116;1253;71203;-70
2023/09/21 20:35:56;;;;;;;14.30;10.40;;;;;;;17.72;63.71;100720.02;108065;1253;62819;-69
2023/09/21 20:38:24;;;;;;;14.70;9.60;;;;;;;17.67;63.78;100721.05;108014;1254;61891;-68
2023/09/21 20:40:53;;;;;;;13.60;10.00;;;;;;;17.60;63.88;100725.29;108190;1253;72675;-68
2023/09/21 20:43:20;;;;;;;12.80;10.30;;;;;;;17.54;64.01;100727.22;108211;1253;71755;-69
2023/09/21 20:45:49;;;;;;;12.70;9.90;;;;;;;17.49;64.05;100724.04;108143;1253;73002;-69
2023/09/21 20:48:18;;;;;;;12.80;10.00;;;;;;;17.45;64.05;100724.86;108083;1257;60462;-72
2023/09/21 20:50:47;;;;;;;13.80;10.00;;;;;;;17.43;64.16;100722.61;108147;1253;60299;-69
2023/09/21 20:53:15;;;;;;;13.80;10.20;;;;;;;17.42;64.15;100718.98;108088;1254;73202;-68
2023/09/21 20:55:43;;;;;;;11.90;10.00;;;;;;;17.40;64.14;100719.23;108198;1253;73330;-69
2023/09/21 20:58:11;;;;;;;16.60;9.90;;;;;;;17.39;64.25;100723.31;108046;1254;72080;-67
2023/09/21 21:00:40;;;;;;;14.40;10.00;;;;;;;17.38;64.30;100725.27;108200;1254;64145;-69
2023/09/21 21:03:09;;;;;;;12.00;9.40;;;;;;;17.37;64.44;100727.27;108158;1253;60274;-70
2023/09/21 21:05:38;;;;;;;13.80;10.00;;;;;;;17.34;64.63;100734.39;108048;1254;74812;-68
2023/09/21 21:08:06;;;;;;;13.60;10.10;;;;;;;17.33;64.63;100732.21;108051;1253;74563;-68
2023/09/21 21:10:35;;;;;;;12.50;9.50;;;;;;;17.30;64.57;100731.23;108082;1254;72904;-67
2023/09/21 21:13:03;;;;;;;12.70;9.30;;;;;;;17.30;64.52;100728.75;107896;1253;63167;-70
2023/09/21 21:15:34;;;;;;;16.80;10.60;;;;;;;17.29;64.31;100726.01;108421;1254;61121;-67
2023/09/21 21:18:03;;;;;;;11.00;9.30;;;;;;;17.28;64.21;100730.36;108159;1254;72548;-68
2023/09/21 21:20:31;;;;;;;12.40;9.90;;;;;;;17.28;64.15;100729.39;108174;1254;72811;-68
2023/09/21 21:23:00;;;;;;;12.80;10.10;;;;;;;17.26;64.08;100733.52;108279;1253;74714;-69
2023/09/21 21:25:28;;;;;;;12.80;10.30;;;;;;;17.23;63.96;100733.84;108076;1255;61723;-68
2023/09/21 21:27:56;;;;;;;14.10;9.60;;;;;;;17.20;63.97;100733.09;107811;1254;60338;-69
2023/09/21 21:30:24;;;;;;;12.40;9.60;;;;;;;17.17;64.00;100734.39;107992;1254;72718;-69
2023/09/21 21:32:52;;;;;;;11.70;10.00;;;;;;;17.15;63.93;100730.97;108045;1254;74917;-69
2023/09/21 21:35:20;;;;;;;12.00;9.60;;;;;;;17.12;64.08;100731.11;107837;1256;72860;-68
2023/09/21 21:37:48;;;;;;;14.60;9.70;;;;;;;17.09;64.13;100728.85;107764;1256;63836;-67
2023/09/21 21:40:16;;;;;;;14.40;9.90;;;;;;;17.07;64.24;100731.20;108022;1254;60276;-69
2023/09/21 21:42:44;;;;;;;16.40;9.40;;;;;;;17.06;64.25;100731.98;108062;1259;73958;-69
2023/09/21 21:45:12;;;;;;;11.60;9.50;;;;;;;17.03;64.32;100728.51;107972;1254;72685;-69
2023/09/21 21:47:40;;;;;;;12.30;9.60;;;;;;;17.02;64.31;100731.73;107904;1254;72971;-69
2023/09/21 21:50:09;;;;;;;10.60;9.40;;;;;;;17.00;64.50;100736.71;108001;1254;60442;-69
2023/09/21 21:52:36;;;;;;;12.20;8.90;;;;;;;16.94;64.46;100745.14;108002;1254;60422;-69
2023/09/21 21:55:05;;;;;;;12.60;9.50;;;;;;;16.83;64.69;100744.56;107994;1254;73862;-69
2023/09/21 21:57:32;;;;;;;12.90;9.90;;;;;;;16.76;64.91;100732.96;107954;1254;72967;-69
2023/09/21 22:00:01;;;;;;;12.10;10.10;;;;;;;16.73;65.11;100732.33;107932;1254;71429;-67
2023/09/21 22:02:38;;;;;;;12.40;9.70;;;;;;;16.73;65.19;100738.63;107974;1258;60990;-68
2023/09/21 22:05:06;;;;;;;10.40;9.10;;;;;;;16.78;65.29;100743.50;107906;1254;60320;-69
2023/09/21 22:07:34;;;;;;;10.80;9.20;;;;;;;16.83;65.36;100733.01;108025;1254;73813;-69
2023/09/21 22:10:03;;;;;;;12.70;10.20;;;;;;;16.85;65.49;100733.23;107991;1254;70740;-69
2023/09/21 22:12:34;;;;;;;16.10;9.10;;;;;;;16.86;65.62;100745.14;107938;1256;72462;-70
2023/09/21 22:15:02;;;;;;;11.10;9.20;;;;;;;16.85;65.58;100744.48;107957;1257;60411;-70
2023/09/21 22:17:33;;;;;;;10.80;9.20;;;;;;;16.87;65.76;100736.72;108041;1254;60434;-69
2023/09/21 22:20:05;;;;;;;14.60;9.40;;;;;;;16.92;65.82;100736.41;107904;1254;73950;-68
2023/09/21 22:22:32;;;;;;;13.00;9.90;;;;;;;16.97;65.78;100738.61;107995;1254;71403;-68
2023/09/21 22:25:00;;;;;;;11.60;9.20;;;;;;;17.02;65.70;100729.19;107847;1257;71472;-68
2023/09/21 22:27:28;;;;;;;10.30;9.20;;;;;;;17.05;65.74;100725.89;107945;1256;60853;-67
2023/09/21 22:29:57;;;;;;;13.10;9.60;;;;;;;17.06;65.69;100734.94;107949;1255;60421;-68
2023/09/21 22:32:24;;;;;;;11.90;9.50;;;;;;;17.08;65.70;100737.79;107907;1257;75213;-69
2023/09/21 22:34:54;;;;;;;10.70;9.30;;;;;;;17.09;65.57;100728.46;107983;1259;72921;-68
2023/09/21 22:37:22;;;;;;;11.60;9.90;;;;;;;17.13;65.47;100731.21;107904;1254;72700;-68
2023/09/21 22:39:49;;;;;;;13.40;9.90;;;;;;;17.14;65.40;100727.25;108035;1254;60231;-68
2023/09/21 22:42:17;;;;;;;12.30;10.20;;;;;;;17.12;65.46;100728.92;107978;1254;60555;-68
2023/09/21 22:44:44;;;;;;;11.10;9.60;;;;;;;17.09;65.36;100726.98;108029;1254;73870;-69
2023/09/21 22:47:12;;;;;;;12.60;9.30;;;;;;;17.06;65.45;100726.42;108017;1254;72795;-69
2023/09/21 22:49:40;;;;;;;12.00;9.40;;;;;;;17.03;65.54;100723.34;107999;1254;72332;-68
2023/09/21 22:52:07;;;;;;;11.60;10.30;;;;;;;16.99;65.56;100721.03;107930;1254;61631;-68
2023/09/21 22:54:35;;;;;;;14.70;10.30;;;;;;;16.93;65.73;100721.03;107877;1254;61210;-70
2023/09/21 22:57:03;;;;;;;12.30;9.50;;;;;;;16.90;65.85;100720.43;107943;1254;73804;-68
2023/09/21 22:59:31;;;;;;;12.80;9.90;;;;;;;16.84;66.12;100713.98;108026;1259;72207;-69
2023/09/21 23:01:59;;;;;;;13.00;10.10;;;;;;;16.80;66.23;100717.09;108029;1254;70956;-69
2023/09/21 23:04:27;;;;;;;12.80;10.60;;;;;;;16.76;66.38;100717.30;108051;1254;61887;-69
2023/09/21 23:06:58;;;;;;;13.20;10.30;;;;;;;16.72;66.50;100718.80;108087;1254;59541;-68
2023/09/21 23:09:26;;;;;;;13.30;10.70;;;;;;;16.68;66.62;100718.21;108017;1253;73936;-69
2023/09/21 23:11:55;;;;;;;11.20;9.80;;;;;;;16.65;66.71;100720.48;108037;1257;72747;-67
2023/09/21 23:14:23;;;;;;;13.20;10.00;;;;;;;16.61;66.81;100717.83;107975;1257;72703;-69
2023/09/21 23:16:50;;;;;;;13.90;10.40;;;;;;;16.58;66.85;100713.63;108017;1256;61898;-68
2023/09/21 23:19:18;;;;;;;13.60;10.50;;;;;;;16.54;66.85;100712.55;108022;1254;60041;-69
2023/09/21 23:21:49;;;;;;;13.10;10.90;;;;;;;16.49;67.01;100708.65;108055;1257;74085;-69
2023/09/21 23:24:17;;;;;;;15.90;11.50;;;;;;;16.42;67.12;100712.50;108008;1254;72685;-70
2023/09/21 23:26:46;;;;;;;13.60;10.40;;;;;;;16.34;67.21;100714.09;108056;1254;72648;-68
2023/09/21 23:29:14;;;;;;;14.20;11.20;;;;;;;16.24;67.38;100710.19;107936;1254;60323;-69
2023/09/21 23:31:44;;;;;;;13.90;10.90;;;;;;;16.17;67.49;100714.36;108012;1260;60362;-69
2023/09/21 23:34:12;;;;;;;12.50;10.90;;;;;;;16.13;67.59;100709.70;108032;1254;73916;-70
2023/09/21 23:36:40;;;;;;;17.20;11.30;;;;;;;16.09;67.73;100706.45;108020;1254;72735;-69
2023/09/21 23:39:13;;;;;;;15.10;11.40;;;;;;;16.05;67.87;100710.86;108128;1256;71424;-69
2023/09/21 23:41:41;;;;;;;16.50;11.00;;;;;;;16.02;67.99;100709.33;108064;1254;60471;-68